createdAt,value
2019-03-28T00:01:33.512Z,99085.70
2019-03-28T00:04:02.103Z,99084.84
2019-03-28T00:06:30.786Z,99084.84
2019-03-28T00:08:59.383Z,99082.23
2019-03-28T00:11:27.763Z,99070.48
2019-03-28T00:13:56.237Z,99067.87
2019-03-28T00:16:24.807Z,99075.69
2019-03-28T00:18:53.398Z,99073.52
2019-03-28T00:21:21.655Z,99076.09
2019-03-28T00:24:00.174Z,99076.54
2019-03-28T00:26:30.419Z,99077.83
2019-03-28T00:28:59.133Z,99077.38
2019-03-28T00:31:27.755Z,99074.34
2019-03-28T00:33:56.276Z,99045.20
2019-03-28T00:36:24.728Z,99070.42
2019-03-28T00:38:53.126Z,99071.33
2019-03-28T00:41:21.782Z,99075.20
2019-03-28T00:43:50.110Z,99074.30
2019-03-28T00:46:18.678Z,99072.13
2019-03-28T00:48:47.013Z,99077.34
2019-03-28T00:51:15.527Z,99071.25
2019-03-28T00:53:43.891Z,99071.69
2019-03-28T00:56:12.571Z,99074.74
2019-03-28T00:58:41.029Z,99072.95
2019-03-28T01:01:09.337Z,99073.38
2019-03-28T01:03:37.750Z,99071.19
2019-03-28T01:06:05.976Z,99070.34
2019-03-28T01:08:34.377Z,99072.95
2019-03-28T01:11:02.622Z,99069.48
2019-03-28T01:13:30.862Z,99064.67
2019-03-28T01:15:59.189Z,99050.32
2019-03-28T01:18:27.640Z,99068.16
2019-03-28T01:20:55.812Z,99068.16
2019-03-28T01:23:23.911Z,99066.42
2019-03-28T01:25:52.098Z,99070.30
2019-03-28T01:28:20.367Z,99064.69
2019-03-28T01:30:48.457Z,99062.95
2019-03-28T01:33:16.656Z,99063.82
2019-03-28T01:35:44.964Z,99063.36
2019-03-28T01:38:13.216Z,99067.66
2019-03-28T01:40:41.447Z,99062.02
2019-03-28T01:43:09.477Z,99058.09
2019-03-28T01:45:37.621Z,99060.25
2019-03-28T01:48:05.694Z,99055.04
2019-03-28T01:50:33.830Z,99056.84
2019-03-28T01:53:02.084Z,99053.81
2019-03-28T01:55:30.590Z,99061.17
2019-03-28T01:57:59.117Z,99057.71
2019-03-28T02:00:27.421Z,99061.69
2019-03-28T02:02:55.982Z,99058.20
2019-03-28T02:05:26.482Z,99057.78
2019-03-28T02:07:55.139Z,99043.94
2019-03-28T02:10:24.156Z,99041.77
2019-03-28T02:12:52.678Z,99039.59
2019-03-28T02:15:23.345Z,99041.78
2019-03-28T02:17:52.037Z,99039.59
2019-03-28T02:20:20.265Z,99033.52
2019-03-28T02:22:48.461Z,99034.83
2019-03-28T02:25:17.232Z,99039.59
2019-03-28T02:27:45.746Z,99043.93
2019-03-28T02:30:15.959Z,99035.69
2019-03-28T02:32:44.375Z,99033.95
2019-03-28T02:35:12.959Z,99033.52
2019-03-28T02:37:41.471Z,99030.92
2019-03-28T02:40:10.248Z,99035.28
2019-03-28T02:42:38.500Z,99038.77
2019-03-28T02:45:08.115Z,99044.83
2019-03-28T02:47:36.442Z,99033.11
2019-03-28T02:50:05.076Z,99037.89
2019-03-28T02:52:33.189Z,99040.95
2019-03-28T02:55:01.421Z,99031.36
2019-03-28T02:57:41.190Z,99033.98
2019-03-28T02:59:59.965Z,99046.57
2019-03-28T03:02:28.055Z,99009.60
2019-03-28T03:04:56.213Z,99045.70
2019-03-28T03:07:24.496Z,99049.59
2019-03-28T03:09:52.926Z,99048.32
2019-03-28T03:12:21.204Z,99047.88
2019-03-28T03:14:49.603Z,99052.24
2019-03-28T03:17:17.884Z,99052.67
2019-03-28T03:19:46.249Z,99050.06
2019-03-28T03:22:14.633Z,99052.22
2019-03-28T03:24:43.066Z,99051.81
2019-03-28T03:27:11.259Z,99042.66
2019-03-28T03:29:39.527Z,99051.80
2019-03-28T03:32:07.702Z,99053.99
2019-03-28T03:34:35.812Z,99058.77
2019-03-28T03:37:04.210Z,99028.33
2019-03-28T03:39:32.306Z,99053.97
2019-03-28T03:42:00.548Z,99053.97
2019-03-28T03:44:28.861Z,99054.41
2019-03-28T03:46:56.982Z,99052.67
2019-03-28T03:49:25.453Z,99055.72
2019-03-28T03:51:53.904Z,99032.67
2019-03-28T03:54:23.274Z,99021.81
2019-03-28T03:56:51.682Z,99043.52
2019-03-28T03:59:20.107Z,99040.47
2019-03-28T04:01:48.574Z,99040.91
2019-03-28T04:04:16.792Z,99047.03
2019-03-28T04:06:44.981Z,99040.51
2019-03-28T04:09:13.084Z,99041.36
2019-03-28T04:11:41.412Z,99043.53
2019-03-28T04:14:09.550Z,99037.88
2019-03-28T04:16:38.225Z,99036.57
2019-03-28T04:19:06.823Z,99036.16
2019-03-28T04:21:35.349Z,99037.89
2019-03-28T04:24:03.791Z,99043.11
2019-03-28T04:26:32.252Z,99044.83
2019-03-28T04:29:00.584Z,99037.89
2019-03-28T04:31:29.011Z,99036.55
2019-03-28T04:33:57.292Z,99035.72
2019-03-28T04:36:25.622Z,99035.27
2019-03-28T04:38:53.843Z,99037.02
2019-03-28T04:41:22.120Z,99022.22
2019-03-28T04:43:50.918Z,99033.97
2019-03-28T04:46:20.010Z,99040.94
2019-03-28T04:48:50.633Z,99037.02
2019-03-28T04:51:18.734Z,99037.86
2019-03-28T04:53:46.976Z,99042.66
2019-03-28T04:56:15.235Z,99012.20
2019-03-28T04:58:44.917Z,99043.95
2019-03-28T05:01:13.857Z,99045.23
2019-03-28T05:03:42.054Z,99051.30
2019-03-28T05:06:10.159Z,99046.09
2019-03-28T05:08:38.313Z,99049.12
2019-03-28T05:11:07.302Z,99056.47
2019-03-28T05:13:35.616Z,99056.04
2019-03-28T05:16:03.729Z,99061.24
2019-03-28T05:18:32.262Z,99055.09
2019-03-28T05:21:00.549Z,99056.40
2019-03-28T05:23:28.716Z,99059.88
2019-03-28T05:25:57.320Z,99066.88
2019-03-28T05:28:25.928Z,99064.27
2019-03-28T05:31:00.669Z,99059.05
2019-03-28T05:33:29.021Z,99070.31
2019-03-28T05:35:57.434Z,99063.34
2019-03-28T05:38:26.172Z,99067.23
2019-03-28T05:40:54.739Z,99076.78
2019-03-28T05:43:23.099Z,99070.21
2019-03-28T05:45:51.798Z,99080.60
2019-03-28T05:48:20.597Z,99077.07
2019-03-28T05:50:48.957Z,99082.65
2019-03-28T05:53:17.553Z,99086.09
2019-03-28T05:55:46.532Z,99086.48
2019-03-28T05:58:15.114Z,99054.27
2019-03-28T06:00:43.648Z,99086.91
2019-03-28T06:03:16.356Z,99087.75
2019-03-28T06:05:45.018Z,99090.80
2019-03-28T06:08:13.303Z,99090.41
2019-03-28T06:10:41.546Z,99084.75
2019-03-28T06:13:10.066Z,99089.53
2019-03-28T06:15:41.063Z,99095.98
2019-03-28T06:18:09.342Z,99090.27
2019-03-28T06:20:37.669Z,99091.98
2019-03-28T06:23:05.959Z,99092.75
2019-03-28T06:25:34.228Z,99093.94
2019-03-28T06:28:02.441Z,99096.88
2019-03-28T06:30:31.142Z,99101.17
2019-03-28T06:32:59.606Z,99103.13
2019-03-28T06:35:28.076Z,99104.72
2019-03-28T06:37:56.730Z,99105.09
2019-03-28T06:40:26.176Z,99104.20
2019-03-28T06:42:54.622Z,99104.55
2019-03-28T06:45:23.138Z,99109.29
2019-03-28T06:47:51.739Z,99111.41
2019-03-28T06:50:21.159Z,99114.34
2019-03-28T06:52:49.433Z,99118.31
2019-03-28T06:55:17.982Z,99122.60
2019-03-28T06:57:46.428Z,99118.02
2019-03-28T07:00:15.442Z,99115.22
2019-03-28T07:02:44.078Z,99115.52
2019-03-28T07:05:12.616Z,99110.75
2019-03-28T07:07:41.229Z,99110.39
2019-03-28T07:10:11.776Z,99116.41
2019-03-28T07:12:40.301Z,99116.59
2019-03-28T07:15:09.681Z,99114.69
2019-03-28T07:17:38.111Z,99112.13
2019-03-28T07:20:09.283Z,99113.56
2019-03-28T07:22:37.898Z,99114.16
2019-03-28T07:25:06.902Z,99117.19
2019-03-28T07:27:35.438Z,99119.18
2019-03-28T07:30:04.687Z,99122.45
2019-03-28T07:32:33.016Z,99120.92
2019-03-28T07:35:01.536Z,99119.86
2019-03-28T07:37:30.050Z,99116.36
2019-03-28T07:39:58.553Z,99118.74
2019-03-28T07:42:27.105Z,99121.16
2019-03-28T07:44:55.469Z,99122.92
2019-03-28T07:47:23.928Z,99121.40
2019-03-28T07:49:53.357Z,99121.45
2019-03-28T07:52:21.704Z,99131.64
2019-03-28T07:54:50.130Z,99128.36
2019-03-28T07:57:18.456Z,99135.98
2019-03-28T07:59:46.895Z,99128.69
2019-03-28T08:02:15.412Z,99133.66
2019-03-28T08:04:44.059Z,99134.80
2019-03-28T08:07:12.448Z,99130.63
2019-03-28T08:09:41.231Z,99132.46
2019-03-28T08:12:21.763Z,99126.56
2019-03-28T08:14:39.722Z,99133.50
2019-03-28T08:17:07.911Z,99133.86
2019-03-28T08:19:36.139Z,99134.01
2019-03-28T08:22:04.257Z,99136.02
2019-03-28T08:24:32.465Z,99126.90
2019-03-28T08:27:00.598Z,99131.85
2019-03-28T08:29:28.891Z,99128.21
2019-03-28T08:31:57.343Z,99128.14
2019-03-28T08:34:25.516Z,99124.14
2019-03-28T08:36:54.089Z,99121.56
2019-03-28T08:39:22.786Z,99122.09
2019-03-28T08:41:50.968Z,99123.32
2019-03-28T08:44:22.381Z,99120.89
2019-03-28T08:46:49.126Z,99125.14
2019-03-28T08:49:17.322Z,99118.09
2019-03-28T08:51:45.456Z,99123.52
2019-03-28T08:54:13.610Z,99124.72
2019-03-28T08:56:41.714Z,99120.83
2019-03-28T08:59:09.809Z,99121.86
2019-03-28T09:04:24.374Z,99117.84
2019-03-28T09:06:52.497Z,99086.97
2019-03-28T09:09:21.486Z,99112.60
2019-03-28T09:11:49.767Z,99103.80
2019-03-28T09:14:20.703Z,99086.72
2019-03-28T09:19:50.203Z,99095.41
2019-03-28T09:22:18.324Z,99089.20
2019-03-28T09:24:46.577Z,99094.66
2019-03-28T09:27:14.716Z,99095.09
2019-03-28T09:29:42.926Z,99090.95
2019-03-28T09:32:11.462Z,99091.48
2019-03-28T09:34:39.677Z,99095.30
2019-03-28T09:37:07.932Z,99094.28
2019-03-28T09:39:36.244Z,99089.22
2019-03-28T09:42:04.561Z,99089.14
2019-03-28T09:44:32.770Z,99083.77
2019-03-28T09:47:01.135Z,99074.32
2019-03-28T09:49:29.440Z,99078.27
2019-03-28T09:51:57.681Z,99076.60
2019-03-28T09:54:25.882Z,99074.47
2019-03-28T09:56:54.213Z,99069.30
2019-03-28T09:59:22.379Z,99065.84
2019-03-28T10:01:50.677Z,99059.83
2019-03-28T10:04:19.279Z,99064.69
2019-03-28T10:06:47.751Z,99068.41
2019-03-28T10:09:15.967Z,99064.44
2019-03-28T10:11:44.095Z,99050.08
2019-03-28T10:14:12.288Z,99047.42
2019-03-28T10:16:40.523Z,99047.89
2019-03-28T10:19:08.623Z,99045.63
2019-03-28T10:21:37.638Z,99044.78
2019-03-28T10:24:05.957Z,99047.63
2019-03-28T10:26:34.147Z,99044.39
2019-03-28T10:29:02.272Z,99046.51
2019-03-28T10:31:30.384Z,99048.55
2019-03-28T10:33:58.653Z,99042.81
2019-03-28T10:36:27.919Z,99044.62
2019-03-28T10:38:56.546Z,99043.21
2019-03-28T10:41:26.026Z,99042.48
2019-03-28T10:43:54.473Z,99038.75
2019-03-28T10:46:22.589Z,99041.41
2019-03-28T10:48:54.257Z,99035.77
2019-03-28T10:51:20.883Z,99036.27
2019-03-28T10:53:49.074Z,99024.84
2019-03-28T10:56:21.738Z,99036.88
2019-03-28T10:58:47.269Z,99041.48
2019-03-28T11:01:16.799Z,99037.09
2019-03-28T11:03:45.415Z,99036.80
2019-03-28T11:06:13.518Z,99032.48
2019-03-28T11:08:42.659Z,99027.62
2019-03-28T11:11:10.866Z,99034.14
2019-03-28T11:13:39.094Z,99030.14
2019-03-28T11:16:07.187Z,99032.66
2019-03-28T11:18:35.417Z,99021.42
2019-03-28T11:21:03.617Z,99014.00
2019-03-28T11:23:32.631Z,99013.86
2019-03-28T11:26:00.853Z,99018.58
2019-03-28T11:28:29.101Z,99012.10
2019-03-28T11:30:57.687Z,99007.36
2019-03-28T11:33:25.953Z,99011.13
2019-03-28T11:35:55.324Z,99011.88
2019-03-28T11:38:23.525Z,99004.46
2019-03-28T11:40:51.857Z,99009.48
2019-03-28T11:43:20.112Z,99001.95
2019-03-28T11:45:48.307Z,98994.77
2019-03-28T11:48:16.399Z,98994.92
2019-03-28T11:50:44.711Z,98959.47
2019-03-28T11:53:12.817Z,98988.44
2019-03-28T11:55:40.990Z,98981.46
2019-03-28T11:58:09.137Z,98979.48
2019-03-28T12:00:37.316Z,98978.92
2019-03-28T12:03:05.413Z,98982.53
2019-03-28T12:05:33.680Z,98977.34
2019-03-28T12:08:01.778Z,98974.97
2019-03-28T12:10:30.021Z,98963.91
2019-03-28T12:12:58.133Z,98965.00
2019-03-28T12:15:26.453Z,98964.38
2019-03-28T12:17:54.635Z,98961.14
2019-03-28T12:20:23.003Z,98962.69
2019-03-28T12:22:51.233Z,98963.02
2019-03-28T12:25:19.430Z,98965.69
2019-03-28T12:27:47.529Z,98965.10
2019-03-28T12:30:16.579Z,98962.90
2019-03-28T12:32:46.144Z,98949.16
2019-03-28T12:35:14.361Z,98938.80
2019-03-28T12:37:42.627Z,98947.67
2019-03-28T12:40:12.225Z,98920.16
2019-03-28T12:42:40.605Z,98934.03
2019-03-28T12:45:09.771Z,98936.17
2019-03-28T12:47:42.535Z,98930.30
2019-03-28T12:50:09.239Z,98923.92
2019-03-28T12:52:37.476Z,98919.58
2019-03-28T12:55:05.931Z,98914.33
2019-03-28T12:57:35.274Z,98912.89
2019-03-28T13:00:06.871Z,98915.03
2019-03-28T13:02:35.328Z,98906.33
2019-03-28T13:05:04.069Z,98902.33
2019-03-28T13:07:32.283Z,98897.93
2019-03-28T13:10:01.967Z,98895.77
2019-03-28T13:12:30.613Z,98888.97
2019-03-28T13:14:58.927Z,98887.45
2019-03-28T13:17:27.090Z,98889.00
2019-03-28T13:19:55.284Z,98889.20
2019-03-28T13:22:23.657Z,98893.67
2019-03-28T13:24:51.971Z,98899.05
2019-03-28T13:27:20.219Z,98890.68
2019-03-28T13:29:48.473Z,98894.04
2019-03-28T13:32:16.780Z,98898.13
2019-03-28T13:34:45.044Z,98869.53
2019-03-28T13:37:13.237Z,98881.32
2019-03-28T13:39:43.062Z,98875.75
2019-03-28T13:42:12.009Z,98872.09
2019-03-28T13:44:40.749Z,98872.47
2019-03-28T13:47:09.050Z,98866.77
2019-03-28T13:49:37.170Z,98867.38
2019-03-28T13:52:05.590Z,98869.92
2019-03-28T13:54:33.705Z,98869.63
2019-03-28T13:57:01.898Z,98859.16
2019-03-28T13:59:31.891Z,98863.29
2019-03-28T14:02:01.019Z,98868.61
2019-03-28T14:04:29.219Z,98865.95
2019-03-28T14:06:57.369Z,98865.44
2019-03-28T14:09:25.564Z,98853.97
2019-03-28T14:11:53.781Z,98850.98
2019-03-28T14:14:21.917Z,98854.17
2019-03-28T14:16:53.103Z,98846.69
2019-03-28T14:19:20.103Z,98846.22
2019-03-28T14:21:48.245Z,98842.55
2019-03-28T14:24:16.397Z,98834.91
2019-03-28T14:26:44.580Z,98842.16
2019-03-28T14:29:12.760Z,98837.51
2019-03-28T14:31:40.940Z,98827.23
2019-03-28T14:34:09.221Z,98838.81
2019-03-28T14:36:38.651Z,98837.13
2019-03-28T14:39:07.511Z,98833.61
2019-03-28T14:41:35.733Z,98838.73
2019-03-28T14:44:04.065Z,98834.70
2019-03-28T14:46:33.265Z,98812.70
2019-03-28T14:49:01.351Z,98833.38
2019-03-28T14:51:29.504Z,98834.81
2019-03-28T14:53:57.677Z,98837.61
2019-03-28T14:56:27.267Z,98833.98
2019-03-28T14:58:56.035Z,98834.20
2019-03-28T15:01:26.679Z,98803.72
2019-03-28T15:03:54.234Z,98824.91
2019-03-28T15:06:22.464Z,98819.17
2019-03-28T15:08:51.870Z,98815.23
2019-03-28T15:11:20.094Z,98815.82
2019-03-28T15:13:48.271Z,98811.34
2019-03-28T15:16:16.506Z,98814.11
2019-03-28T15:18:44.663Z,98809.41
2019-03-28T15:21:12.922Z,98814.67
2019-03-28T15:23:41.030Z,98814.36
2019-03-28T15:26:09.325Z,98813.89
2019-03-28T15:28:37.403Z,98817.41
2019-03-28T15:31:05.550Z,98825.73
2019-03-28T15:33:39.726Z,98821.80
2019-03-28T15:36:03.834Z,98822.66
2019-03-28T15:38:31.962Z,98802.63
2019-03-28T15:41:00.430Z,98822.25
2019-03-28T15:43:28.652Z,98821.61
2019-03-28T15:45:59.556Z,98821.73
2019-03-28T15:48:28.077Z,98821.05
2019-03-28T15:50:56.369Z,98820.30
2019-03-28T15:53:24.551Z,98827.37
2019-03-28T15:55:52.767Z,98826.67
2019-03-28T15:58:23.679Z,98831.56
2019-03-28T16:00:51.084Z,98836.33
2019-03-28T16:03:19.225Z,98833.38
2019-03-28T16:05:57.467Z,98841.99
2019-03-28T16:08:17.509Z,98811.05
2019-03-28T16:10:45.825Z,98837.41
2019-03-28T16:13:13.957Z,98835.52
2019-03-28T16:15:42.114Z,98831.64
2019-03-28T16:18:10.255Z,98802.23
2019-03-28T16:20:38.521Z,98839.56
2019-03-28T16:23:06.594Z,98822.27
2019-03-28T16:25:34.824Z,98842.34
2019-03-28T16:28:03.043Z,98841.23
2019-03-28T16:30:35.464Z,98851.66
2019-03-28T16:33:03.772Z,98851.35
2019-03-28T16:35:31.988Z,98854.76
2019-03-28T16:38:00.265Z,98853.66
2019-03-28T16:40:28.435Z,98852.70
2019-03-28T16:42:56.737Z,98825.63
2019-03-28T16:45:25.022Z,98852.74
2019-03-28T16:47:53.299Z,98859.73
2019-03-28T16:50:21.521Z,98863.22
2019-03-28T16:52:49.726Z,98864.00
2019-03-28T16:55:26.247Z,98864.59
2019-03-28T16:57:48.078Z,98863.48
2019-03-28T17:00:16.759Z,98865.34
2019-03-28T17:02:44.981Z,98861.95
2019-03-28T17:05:13.357Z,98861.29
2019-03-28T17:07:42.334Z,98862.83
2019-03-28T17:10:20.272Z,98861.33
2019-03-28T17:12:48.614Z,98859.41
2019-03-28T17:15:17.695Z,98869.28
2019-03-28T17:17:46.249Z,98871.15
2019-03-28T17:20:15.086Z,98876.64
2019-03-28T17:22:43.550Z,98879.20
2019-03-28T17:25:11.803Z,98886.84
2019-03-28T17:27:39.996Z,98892.06
2019-03-28T17:30:08.236Z,98886.26
2019-03-28T17:32:37.008Z,98895.07
2019-03-28T17:35:06.078Z,98889.63
2019-03-28T17:37:34.415Z,98889.94
2019-03-28T17:40:02.778Z,98894.48
2019-03-28T17:42:31.049Z,98906.27
2019-03-28T17:44:59.667Z,98902.77
2019-03-28T17:47:28.222Z,98902.59
2019-03-28T17:49:56.424Z,98908.36
2019-03-28T17:52:24.712Z,98906.45
2019-03-28T17:54:53.023Z,98914.81
2019-03-28T17:57:21.209Z,98916.05
2019-03-28T17:59:49.348Z,98922.50
2019-03-28T18:02:17.471Z,98928.11
2019-03-28T18:04:47.997Z,98938.84
2019-03-28T18:07:15.675Z,98930.81
2019-03-28T18:09:43.892Z,98941.83
2019-03-28T18:12:12.052Z,98932.23
2019-03-28T18:14:40.152Z,98932.80
2019-03-28T18:17:08.349Z,98928.73
2019-03-28T18:19:36.546Z,98910.81
2019-03-28T18:22:04.672Z,98934.01
2019-03-28T18:24:33.955Z,98936.91
2019-03-28T18:27:02.137Z,98946.91
2019-03-28T18:29:30.242Z,98942.21
2019-03-28T18:31:58.502Z,98941.75
2019-03-28T18:34:26.600Z,98943.37
2019-03-28T18:36:54.723Z,98947.70
2019-03-28T18:39:22.884Z,98942.86
2019-03-28T18:41:51.044Z,98953.42
2019-03-28T18:44:19.115Z,98946.59
2019-03-28T18:46:47.422Z,98947.73
2019-03-28T18:49:15.560Z,98948.81
2019-03-28T18:51:43.795Z,98950.59
2019-03-28T18:54:12.000Z,98961.80
2019-03-28T18:56:40.213Z,98958.39
2019-03-28T18:59:08.435Z,98939.59
2019-03-28T19:01:37.651Z,98963.18
2019-03-28T19:04:05.824Z,98973.24
2019-03-28T19:06:34.019Z,98968.86
2019-03-28T19:09:02.143Z,98974.56
2019-03-28T19:11:32.020Z,98971.54
2019-03-28T19:14:00.206Z,98975.24
2019-03-28T19:16:28.364Z,98973.52
2019-03-28T19:18:59.904Z,98983.73
2019-03-28T19:21:27.903Z,98983.13
2019-03-28T19:23:56.159Z,98984.13
2019-03-28T19:26:24.336Z,98981.86
2019-03-28T19:28:52.434Z,98982.32
2019-03-28T19:31:20.585Z,98984.78
2019-03-28T19:33:48.806Z,98983.38
2019-03-28T19:36:17.296Z,98985.45
2019-03-28T19:38:45.810Z,98986.27
2019-03-28T19:41:14.029Z,98987.97
2019-03-28T19:43:42.602Z,98992.11
2019-03-28T19:46:10.832Z,98964.47
2019-03-28T19:48:40.096Z,98993.39
2019-03-28T19:51:08.394Z,98989.71
2019-03-28T19:53:36.627Z,98998.79
2019-03-28T19:56:04.879Z,99000.20
2019-03-28T19:58:35.049Z,99002.70
2019-03-28T20:01:03.252Z,98977.11
2019-03-28T20:03:31.510Z,99007.64
2019-03-28T20:05:59.667Z,99007.70
2019-03-28T20:08:27.922Z,99005.51
2019-03-28T20:10:56.013Z,99003.46
2019-03-28T20:13:24.240Z,99010.53
2019-03-28T20:15:52.352Z,99014.12
2019-03-28T20:18:20.590Z,99016.36
2019-03-28T20:20:48.874Z,99008.94
2019-03-28T20:23:17.405Z,99014.48
2019-03-28T20:25:45.667Z,99018.20
2019-03-28T20:28:14.569Z,99005.39
2019-03-28T20:30:43.348Z,99024.55
2019-03-28T20:33:12.648Z,99022.73
2019-03-28T20:35:41.176Z,99025.54
2019-03-28T20:38:09.547Z,99026.25
2019-03-28T20:40:37.966Z,99032.59
2019-03-28T20:43:07.839Z,99018.36
2019-03-28T20:45:36.954Z,99034.94
2019-03-28T20:48:05.417Z,99050.09
2019-03-28T20:50:33.604Z,99040.33
2019-03-28T20:53:01.907Z,99036.72
2019-03-28T20:55:30.057Z,99050.59
2019-03-28T20:57:58.247Z,99046.48
2019-03-28T21:00:43.946Z,99049.81
2019-03-28T21:03:12.206Z,99042.02
2019-03-28T21:05:40.648Z,99042.59
2019-03-28T21:08:08.977Z,99049.84
2019-03-28T21:10:37.124Z,99053.09
2019-03-28T21:13:05.255Z,99061.48
2019-03-28T21:15:33.407Z,99066.85
2019-03-28T21:18:01.610Z,99066.17
2019-03-28T21:20:29.765Z,99069.30
2019-03-28T21:22:57.949Z,99064.92
2019-03-28T21:25:29.312Z,99065.42
2019-03-28T21:27:56.236Z,99062.41
2019-03-28T21:30:26.961Z,99063.19
2019-03-28T21:32:57.822Z,99062.69
2019-03-28T21:35:26.219Z,99060.63
2019-03-28T21:37:54.471Z,99037.34
2019-03-28T21:40:22.605Z,99070.80
2019-03-28T21:42:50.883Z,99072.05
2019-03-28T21:45:19.074Z,99070.41
2019-03-28T21:47:47.207Z,99070.11
2019-03-28T21:50:15.387Z,99078.55
2019-03-28T21:52:43.580Z,99084.25
2019-03-28T21:55:11.776Z,99076.60
2019-03-28T21:57:42.317Z,99078.75
2019-03-28T22:00:10.170Z,99076.94
2019-03-28T22:02:38.469Z,99074.66
2019-03-28T22:05:07.315Z,99079.00
2019-03-28T22:07:35.619Z,99082.10
2019-03-28T22:10:04.527Z,99082.92
2019-03-28T22:12:32.821Z,99085.16
2019-03-28T22:15:00.979Z,99082.02
2019-03-28T22:17:29.657Z,99090.78
2019-03-28T22:19:57.799Z,99085.57
2019-03-28T22:22:26.029Z,99088.26
2019-03-28T22:24:54.183Z,99083.12
2019-03-28T22:27:22.376Z,99082.88
2019-03-28T22:29:50.490Z,99080.36
2019-03-28T22:32:18.698Z,99083.45
2019-03-28T22:34:46.882Z,99078.09
2019-03-28T22:37:15.240Z,99079.53
2019-03-28T22:39:43.542Z,99087.67
2019-03-28T22:42:12.956Z,99085.14
2019-03-28T22:44:41.218Z,99083.86
2019-03-28T22:47:09.455Z,99082.99
2019-03-28T22:49:37.735Z,99076.88
2019-03-28T22:52:06.145Z,99077.25
2019-03-28T22:54:34.282Z,99072.72
2019-03-28T22:57:02.579Z,99067.88
2019-03-28T22:59:31.366Z,99073.73
2019-03-28T23:02:00.236Z,99066.72
2019-03-28T23:04:31.625Z,99060.56
2019-03-28T23:07:10.310Z,99062.45
2019-03-28T23:09:30.534Z,99068.23
2019-03-28T23:11:58.919Z,99074.44
2019-03-28T23:14:27.108Z,99066.20
2019-03-28T23:16:55.381Z,99068.73
2019-03-28T23:19:23.715Z,99067.98
2019-03-28T23:21:51.889Z,99069.34
2019-03-28T23:24:20.123Z,99076.03
2019-03-28T23:26:48.440Z,99084.98
2019-03-28T23:29:17.744Z,99077.55
2019-03-28T23:31:46.709Z,99080.98
2019-03-28T23:34:15.390Z,99075.62
2019-03-28T23:36:43.671Z,99086.72
2019-03-28T23:39:12.001Z,99092.00
2019-03-28T23:41:40.136Z,99089.85
2019-03-28T23:44:08.364Z,99097.18
2019-03-28T23:46:37.220Z,99096.72
2019-03-28T23:49:06.146Z,99104.42
2019-03-28T23:51:34.515Z,99100.65
2019-03-28T23:54:02.794Z,99102.47
2019-03-28T23:56:31.028Z,99099.59
2019-03-28T23:58:59.278Z,99104.58
